createdAt,value
2022-09-06T06:43:38.365Z,94.91
2022-09-06T06:44:38.326Z,94.91
2022-09-06T06:45:38.324Z,94.51
2022-09-06T06:46:38.320Z,94.00
2022-09-06T06:47:38.279Z,94.06
2022-09-06T06:48:38.270Z,93.66
2022-09-06T06:49:38.263Z,94.76
2022-09-06T06:50:38.248Z,92.60
2022-09-06T06:51:38.232Z,90.59
2022-09-06T06:52:38.230Z,90.34
2022-09-06T06:53:38.251Z,91.66
2022-09-06T06:54:38.222Z,88.13
2022-09-06T06:55:38.198Z,88.29
2022-09-06T06:56:41.182Z,87.49
2022-09-06T06:57:38.179Z,89.10
2022-09-06T06:58:38.224Z,89.90
2022-09-06T06:59:38.152Z,89.56
2022-09-06T07:00:38.187Z,87.35
2022-09-06T07:01:38.219Z,86.94
2022-09-06T07:02:38.112Z,86.94
2022-09-06T07:03:38.133Z,88.21
2022-09-06T07:04:38.094Z,87.30
2022-09-06T07:07:41.003Z,87.81
2022-09-06T07:08:38.054Z,88.27
2022-09-06T07:10:39.035Z,87.62
2022-09-06T07:11:41.023Z,86.18
2022-09-06T07:12:38.037Z,86.88
2022-09-06T07:13:37.996Z,84.83
2022-09-06T07:14:37.996Z,83.33
2022-09-06T07:15:37.980Z,83.19
2022-09-06T07:16:38.073Z,84.09
2022-09-06T07:17:37.955Z,82.43
2022-09-06T07:18:37.952Z,82.82
2022-09-06T07:21:39.092Z,81.73
2022-09-06T07:22:37.918Z,81.42
2022-09-06T07:24:38.910Z,81.46
2022-09-06T07:25:37.881Z,82.06
2022-09-06T07:26:40.897Z,81.87
2022-09-06T07:28:37.880Z,83.37
2022-09-06T07:29:37.829Z,83.97
2022-09-06T07:30:37.823Z,84.37
2022-09-06T07:32:38.805Z,84.47
2022-09-06T07:33:37.781Z,84.97
2022-09-06T07:34:37.789Z,83.87
2022-09-06T07:35:37.764Z,83.57
2022-09-06T07:36:37.770Z,84.17
2022-09-06T07:37:37.760Z,84.63
2022-09-06T07:38:37.735Z,84.93
2022-09-06T07:39:37.856Z,83.43
2022-09-06T07:40:37.723Z,83.73
2022-09-06T07:41:40.705Z,83.43
2022-09-06T07:42:37.707Z,82.18
2022-09-06T07:43:37.688Z,81.09
2022-09-06T07:44:37.708Z,81.99
2022-09-06T07:45:37.657Z,83.79
2022-09-06T07:46:37.731Z,82.39
2022-09-06T07:48:38.627Z,83.49
2022-09-06T07:49:37.868Z,83.65
2022-09-06T07:50:55.885Z,81.18
2022-09-06T07:51:37.598Z,81.38
2022-09-06T07:53:38.582Z,83.59
2022-09-06T07:54:37.608Z,82.39
2022-09-06T07:55:37.553Z,82.82
2022-09-06T07:56:40.541Z,82.93
2022-09-06T07:57:37.554Z,83.23
2022-09-06T07:58:37.531Z,83.33
2022-09-06T07:59:41.198Z,83.53
2022-09-06T08:00:37.570Z,83.73
2022-09-06T08:01:37.507Z,83.43
2022-09-06T08:02:37.522Z,82.73
2022-09-06T08:03:37.475Z,82.93
2022-09-06T08:04:37.469Z,83.63
2022-09-06T08:07:38.732Z,85.33
2022-09-06T08:09:38.420Z,84.63
2022-09-06T08:10:37.411Z,84.93
2022-09-06T08:11:40.395Z,84.37
2022-09-06T08:12:37.517Z,84.77
2022-09-06T08:13:37.372Z,84.37
2022-09-06T08:14:37.376Z,84.37
2022-09-06T08:15:41.488Z,85.27
2022-09-06T08:16:37.406Z,84.97
2022-09-06T08:17:37.368Z,85.61
2022-09-06T08:18:37.319Z,86.82
2022-09-06T08:19:37.311Z,87.02
2022-09-06T08:20:37.302Z,87.42
2022-09-06T08:21:37.296Z,89.03
2022-09-06T08:22:37.281Z,86.56
2022-09-06T08:23:37.273Z,86.36
2022-09-06T08:24:37.263Z,85.46
2022-09-06T08:25:37.245Z,85.90
2022-09-06T08:26:40.237Z,86.60
2022-09-06T08:27:37.238Z,86.80
2022-09-06T08:28:37.262Z,87.10
2022-09-06T08:30:37.206Z,87.71
2022-09-06T08:31:37.250Z,88.31
2022-09-06T08:32:37.183Z,88.81
2022-09-06T08:33:37.173Z,88.91
2022-09-06T08:34:37.160Z,89.42
2022-09-06T08:35:37.156Z,89.92
2022-09-06T08:36:37.134Z,91.32
2022-09-06T08:37:37.126Z,90.12
2022-09-06T08:38:37.116Z,90.22
2022-09-06T08:39:37.310Z,90.46
2022-09-06T08:40:37.114Z,91.17
2022-09-06T08:41:40.077Z,91.77
2022-09-06T08:42:37.109Z,93.18
2022-09-06T08:43:37.066Z,93.78
2022-09-06T08:45:38.042Z,94.59
2022-09-06T08:46:37.069Z,94.89
2022-09-06T08:47:37.011Z,94.68
2022-09-06T08:48:37.021Z,95.89
2022-09-06T08:49:37.110Z,96.50
2022-09-06T08:50:36.990Z,96.84
2022-09-06T08:51:38.558Z,96.74
2022-09-06T08:52:41.756Z,96.74
2022-09-06T08:53:37.954Z,97.04
2022-09-06T08:54:36.942Z,97.04
2022-09-06T08:55:36.930Z,97.44
2022-09-06T08:56:39.922Z,97.59
2022-09-06T08:57:40.147Z,97.69
2022-09-06T08:58:36.900Z,97.34
2022-09-06T08:59:36.924Z,97.24
2022-09-06T09:00:36.902Z,97.44
2022-09-06T09:01:36.907Z,97.34
2022-09-06T09:02:36.894Z,97.75
2022-09-06T09:03:36.854Z,97.85
2022-09-06T09:04:36.836Z,98.05
2022-09-06T09:05:36.830Z,98.40
2022-09-06T09:06:36.814Z,98.00
2022-09-06T09:07:36.874Z,97.90
2022-09-06T09:08:36.797Z,97.50
2022-09-06T09:09:36.799Z,97.60
2022-09-06T09:10:36.776Z,97.70
2022-09-06T09:11:39.756Z,96.89
2022-09-06T09:12:36.898Z,96.89
2022-09-06T09:13:36.743Z,96.45
2022-09-06T09:14:36.731Z,95.95
2022-09-06T09:15:40.238Z,95.84
2022-09-06T09:16:36.836Z,95.34
2022-09-06T09:17:36.700Z,94.04
2022-09-06T09:18:36.705Z,94.74
2022-09-06T09:19:36.693Z,94.24
2022-09-06T09:20:36.672Z,93.93
2022-09-06T09:21:36.658Z,94.44
2022-09-06T09:22:36.690Z,94.74
2022-09-06T09:23:36.639Z,93.93
2022-09-06T09:24:36.630Z,94.74
2022-09-06T09:25:36.625Z,94.74
2022-09-06T09:26:39.592Z,95.75
2022-09-06T09:27:36.612Z,95.34
2022-09-06T09:28:36.580Z,95.84
2022-09-06T09:29:36.578Z,95.95
2022-09-06T09:30:53.009Z,95.95
2022-09-06T09:31:36.674Z,96.04
2022-09-06T09:32:36.545Z,95.24
2022-09-06T09:33:36.590Z,94.74
2022-09-06T09:34:36.525Z,94.94
2022-09-06T09:35:36.515Z,95.00
2022-09-06T09:36:36.505Z,95.30
2022-09-06T09:38:36.477Z,95.45
2022-09-06T09:39:36.499Z,95.15
2022-09-06T09:40:36.457Z,93.70
2022-09-06T09:41:39.458Z,93.30
2022-09-06T09:42:36.538Z,93.30
2022-09-06T09:43:36.428Z,93.76
2022-09-06T09:44:36.424Z,94.42
2022-09-06T09:45:36.403Z,93.62
2022-09-06T09:46:36.450Z,92.36
2022-09-06T09:47:36.391Z,92.16
2022-09-06T09:48:36.371Z,89.86
2022-09-06T09:49:36.367Z,89.46
2022-09-06T09:50:36.367Z,88.96
2022-09-06T09:51:36.343Z,88.86
2022-09-06T09:52:36.333Z,88.48
2022-09-06T09:53:36.432Z,88.53
2022-09-06T09:54:36.317Z,87.79
2022-09-06T09:55:36.311Z,89.49
2022-09-06T09:56:39.319Z,89.05
2022-09-06T09:57:36.334Z,89.25
2022-09-06T09:58:36.275Z,86.87
2022-09-06T09:59:36.270Z,85.77
2022-09-06T10:00:36.328Z,83.57
2022-09-06T10:01:36.238Z,84.51
2022-09-06T10:02:36.277Z,86.71
2022-09-06T10:04:44.950Z,86.91
2022-09-06T10:05:36.217Z,87.61
2022-09-06T10:07:37.220Z,87.51
2022-09-06T10:08:36.168Z,86.11
2022-09-06T10:09:36.161Z,86.55
2022-09-06T10:10:36.157Z,85.39
2022-09-06T10:11:39.178Z,85.09
2022-09-06T10:12:36.138Z,85.79
2022-09-06T10:13:36.118Z,84.93
2022-09-06T10:14:36.108Z,86.03
2022-09-06T10:15:36.093Z,86.63
2022-09-06T10:16:36.232Z,86.65
2022-09-06T10:17:36.070Z,83.97
2022-09-06T10:18:36.063Z,83.83
2022-09-06T10:19:36.068Z,83.55
2022-09-06T10:20:36.040Z,81.52
2022-09-06T10:21:36.029Z,80.72
2022-09-06T10:22:36.022Z,81.02
2022-09-06T10:24:37.005Z,81.22
2022-09-06T10:25:35.997Z,81.22
2022-09-06T10:26:38.981Z,80.62
2022-09-06T10:27:36.086Z,80.18
2022-09-06T10:28:36.954Z,79.31
2022-09-06T10:29:35.954Z,79.27
2022-09-06T10:30:36.060Z,79.27
2022-09-06T10:31:35.967Z,76.45
2022-09-06T10:32:35.924Z,75.92
2022-09-06T10:33:35.907Z,75.72
2022-09-06T10:34:35.897Z,77.47
2022-09-06T10:35:35.884Z,76.38
2022-09-06T10:36:35.877Z,76.57
2022-09-06T10:37:35.866Z,75.78
2022-09-06T10:38:35.848Z,76.08
2022-09-06T10:39:35.904Z,74.85
2022-09-06T10:40:35.836Z,75.98
2022-09-06T10:41:38.938Z,75.09
2022-09-06T10:42:35.830Z,75.32
2022-09-06T10:43:35.800Z,75.92
2022-09-06T10:44:35.790Z,77.75
2022-09-06T10:45:35.774Z,77.64
2022-09-06T10:46:35.934Z,76.61
2022-09-06T10:47:35.752Z,75.62
2022-09-06T10:48:35.742Z,75.22
2022-09-06T10:49:39.622Z,76.28
2022-09-06T10:50:35.721Z,75.09
2022-09-06T10:51:35.735Z,75.78
2022-09-06T10:52:35.696Z,76.44
2022-09-06T10:53:35.696Z,74.46
2022-09-06T10:54:35.692Z,74.65
2022-09-06T10:55:35.667Z,73.46
2022-09-06T10:56:38.705Z,74.65
2022-09-06T10:59:37.746Z,75.31
2022-09-06T11:00:35.617Z,72.63
2022-09-06T11:01:35.755Z,72.73
2022-09-06T11:02:35.880Z,72.10
2022-09-06T11:06:35.648Z,71.28
2022-09-06T11:07:35.729Z,71.28
2022-09-06T11:08:53.316Z,71.01
2022-09-06T11:09:35.611Z,72.24
2022-09-06T11:10:35.509Z,73.76
2022-09-06T11:11:38.601Z,73.40
2022-09-06T11:12:35.504Z,75.22
2022-09-06T11:13:35.471Z,76.21
2022-09-06T11:14:35.473Z,77.34
2022-09-06T11:15:35.499Z,78.24
2022-09-06T11:16:35.475Z,79.14
2022-09-06T11:17:35.444Z,79.27
2022-09-06T11:18:35.423Z,78.08
2022-09-06T11:19:35.415Z,77.98
2022-09-06T11:20:35.406Z,78.52
2022-09-06T11:21:35.386Z,79.11
2022-09-06T11:22:35.377Z,80.30
2022-09-06T11:23:35.377Z,79.31
2022-09-06T11:24:35.368Z,79.25
2022-09-06T11:25:35.356Z,79.15
2022-09-06T11:26:38.342Z,78.16
2022-09-06T11:27:35.347Z,78.35
2022-09-06T11:28:35.320Z,78.65
2022-09-06T11:29:35.317Z,78.85
2022-09-06T11:30:35.302Z,79.94
2022-09-06T11:32:36.274Z,78.25
2022-09-06T11:33:35.267Z,79.15
2022-09-06T11:34:35.251Z,79.15
2022-09-06T11:35:35.250Z,78.95
2022-09-06T11:36:35.264Z,79.25
2022-09-06T11:37:35.235Z,79.55
2022-09-06T11:38:35.250Z,79.75
2022-09-06T11:40:36.194Z,78.95
2022-09-06T11:41:38.173Z,79.65
2022-09-06T11:42:35.175Z,80.68
2022-09-06T11:43:35.157Z,79.39
2022-09-06T11:44:35.156Z,80.48
2022-09-06T11:45:35.135Z,81.42
2022-09-06T11:46:35.162Z,81.92
2022-09-06T11:47:35.165Z,82.32
2022-09-06T11:48:35.135Z,82.75
2022-09-06T11:49:35.095Z,82.35
2022-09-06T11:50:35.084Z,82.20
2022-09-06T11:51:35.075Z,82.65
2022-09-06T11:52:35.075Z,81.99
2022-09-06T11:53:35.062Z,81.79
2022-09-06T11:54:35.029Z,81.99
2022-09-06T11:55:35.036Z,81.79
2022-09-06T11:56:38.021Z,81.49
2022-09-06T11:57:35.067Z,82.14
2022-09-06T11:58:35.013Z,82.14
2022-09-06T11:59:35.034Z,82.03
2022-09-06T12:00:34.978Z,82.43
2022-09-06T12:01:34.982Z,83.13
2022-09-06T12:02:35.063Z,83.97
2022-09-06T12:04:35.973Z,83.97
2022-09-06T12:05:34.922Z,84.87
2022-09-06T12:06:34.915Z,84.87
2022-09-06T12:07:34.903Z,85.01
2022-09-06T12:08:34.894Z,84.81
2022-09-06T12:09:34.903Z,85.01
2022-09-06T12:10:34.878Z,84.61
2022-09-06T12:11:37.864Z,85.21
2022-09-06T12:12:34.872Z,84.91
2022-09-06T12:13:34.837Z,84.81
2022-09-06T12:14:34.830Z,84.51
2022-09-06T12:15:34.900Z,83.95
2022-09-06T12:16:34.807Z,83.95
2022-09-06T12:17:34.798Z,84.55
2022-09-06T12:18:34.790Z,85.35
2022-09-06T12:19:34.827Z,85.15
2022-09-06T12:20:34.766Z,84.99
2022-09-06T12:21:34.759Z,86.09
2022-09-06T12:22:34.749Z,85.89
2022-09-06T12:23:34.741Z,86.29
2022-09-06T12:24:34.729Z,87.19
2022-09-06T12:25:34.708Z,87.29
2022-09-06T12:26:37.708Z,87.59
2022-09-06T12:27:34.712Z,87.34
2022-09-06T12:28:34.704Z,87.53
2022-09-06T12:29:34.690Z,87.34
2022-09-06T12:30:34.701Z,86.13
2022-09-06T12:31:34.754Z,85.97
2022-09-06T12:32:37.064Z,86.77
2022-09-06T12:33:34.645Z,86.61
2022-09-06T12:34:34.649Z,87.12
2022-09-06T12:36:35.653Z,89.02
2022-09-06T12:37:34.618Z,89.16
2022-09-06T12:38:34.589Z,89.86
2022-09-06T12:39:34.664Z,90.56
2022-09-06T12:40:34.558Z,90.31
2022-09-06T12:41:41.734Z,90.20
2022-09-06T12:42:34.549Z,90.25
2022-09-06T12:43:34.527Z,90.05
2022-09-06T12:44:34.532Z,90.95
2022-09-06T12:45:34.500Z,90.89
2022-09-06T12:46:34.560Z,90.59
2022-09-06T12:47:34.481Z,90.94
2022-09-06T12:48:34.522Z,91.14
2022-09-06T12:49:34.468Z,91.94
2022-09-06T12:50:34.464Z,91.88
2022-09-06T12:51:34.436Z,91.99
2022-09-06T12:52:34.442Z,91.18
2022-09-06T12:53:34.413Z,91.58
2022-09-06T12:54:34.412Z,92.43
2022-09-06T12:55:34.402Z,92.53
2022-09-06T12:56:37.398Z,92.53
2022-09-06T12:57:34.398Z,93.03
2022-09-06T12:58:34.368Z,93.13
2022-09-06T12:59:34.386Z,93.43
2022-09-06T13:00:34.353Z,93.74
2022-09-06T13:01:34.489Z,94.34
2022-09-06T13:02:34.418Z,93.59
2022-09-06T13:03:34.317Z,93.79
2022-09-06T13:04:34.337Z,93.19
2022-09-06T13:05:34.291Z,91.78
2022-09-06T13:06:34.278Z,91.68
2022-09-06T13:07:34.274Z,92.54
2022-09-06T13:08:34.266Z,91.64
2022-09-06T13:09:34.298Z,91.54
2022-09-06T13:10:34.236Z,91.84
2022-09-06T13:11:37.228Z,91.09
2022-09-06T13:12:34.241Z,92.00
2022-09-06T13:13:34.211Z,91.96
2022-09-06T13:14:34.208Z,91.85
2022-09-06T13:15:34.209Z,92.35
2022-09-06T13:16:34.170Z,91.61
2022-09-06T13:17:34.163Z,91.81
2022-09-06T13:18:34.151Z,91.31
2022-09-06T13:19:34.144Z,90.45
2022-09-06T13:20:34.188Z,90.89
2022-09-06T13:21:34.112Z,91.19
2022-09-06T13:22:34.113Z,90.59
2022-09-06T13:23:34.106Z,92.20
2022-09-06T13:24:34.090Z,91.89
2022-09-06T13:25:34.086Z,92.40
2022-09-06T13:26:37.063Z,90.89
2022-09-06T13:27:34.074Z,91.50
2022-09-06T13:28:34.052Z,91.39
2022-09-06T13:29:34.037Z,91.75
2022-09-06T13:30:34.035Z,91.15
2022-09-06T13:31:34.108Z,91.45
2022-09-06T13:32:34.008Z,89.75
2022-09-06T13:33:34.000Z,90.31
2022-09-06T13:34:33.982Z,90.70
2022-09-06T13:35:33.997Z,90.77
2022-09-06T13:36:33.972Z,89.86
2022-09-06T13:37:33.959Z,87.26
2022-09-06T13:38:33.943Z,86.66
2022-09-06T13:39:33.976Z,87.76
2022-09-06T13:40:37.755Z,86.85
2022-09-06T13:41:37.909Z,87.52
2022-09-06T13:42:33.918Z,87.32
2022-09-06T13:43:33.895Z,88.28
2022-09-06T13:44:33.877Z,86.68
2022-09-06T13:45:33.868Z,86.18
2022-09-06T13:46:33.982Z,86.37
2022-09-06T13:47:33.903Z,86.57
2022-09-06T13:48:33.842Z,87.27
2022-09-06T13:49:33.833Z,87.23
2022-09-06T13:50:33.814Z,85.83
2022-09-06T13:51:33.804Z,85.43
2022-09-06T13:52:33.794Z,85.39
2022-09-06T13:53:33.783Z,84.89
2022-09-06T13:54:33.774Z,83.39
2022-09-06T13:55:33.765Z,84.39
2022-09-06T13:56:36.745Z,84.83
2022-09-06T13:57:33.748Z,86.73
2022-09-06T13:58:33.899Z,87.73
2022-09-06T13:59:33.717Z,88.03
2022-09-06T14:00:33.720Z,88.03
2022-09-06T14:01:33.753Z,89.14
2022-09-06T14:02:33.716Z,86.47
2022-09-06T14:03:33.681Z,86.77
2022-09-06T14:04:33.674Z,86.68
2022-09-06T14:05:33.671Z,85.71
2022-09-06T14:06:36.784Z,85.82
2022-09-06T14:07:33.639Z,87.41
2022-09-06T14:08:49.711Z,87.52
2022-09-06T14:09:34.600Z,86.82
2022-09-06T14:10:33.606Z,87.36
2022-09-06T14:11:36.617Z,86.46
2022-09-06T14:12:33.596Z,87.05
2022-09-06T14:13:33.571Z,87.86
2022-09-06T14:14:33.620Z,87.36
2022-09-06T14:15:33.620Z,87.36
2022-09-06T14:16:33.546Z,87.46
2022-09-06T14:17:33.531Z,87.76
2022-09-06T14:18:33.525Z,86.76
2022-09-06T14:19:33.522Z,86.96
2022-09-06T14:20:33.495Z,86.76
2022-09-06T14:21:33.485Z,87.16
2022-09-06T14:22:33.476Z,87.76
2022-09-06T14:23:33.465Z,87.96
2022-09-06T14:24:33.446Z,88.26
2022-09-06T14:25:33.490Z,89.12
2022-09-06T14:26:36.431Z,88.82
2022-09-06T14:27:33.440Z,88.12
2022-09-06T14:28:33.409Z,88.32
2022-09-06T14:29:33.399Z,88.28
2022-09-06T14:30:33.429Z,88.18
2022-09-06T14:31:33.450Z,87.87
2022-09-06T14:32:33.371Z,87.83
2022-09-06T14:33:33.357Z,88.13
2022-09-06T14:34:33.346Z,88.53
2022-09-06T14:35:33.471Z,87.83
2022-09-06T14:36:33.322Z,87.93
2022-09-06T14:37:33.310Z,88.59
2022-09-06T14:38:33.321Z,87.83
2022-09-06T14:39:33.334Z,87.23
2022-09-06T14:40:33.283Z,87.53
2022-09-06T14:41:36.272Z,87.43
2022-09-06T14:42:33.274Z,88.33
2022-09-06T14:43:33.252Z,88.23
2022-09-06T14:44:33.245Z,87.83
2022-09-06T14:45:33.236Z,87.43
2022-09-06T14:46:33.276Z,87.93
2022-09-06T14:47:33.211Z,87.63
2022-09-06T14:48:33.200Z,87.83
2022-09-06T14:49:33.176Z,88.13
2022-09-06T14:50:33.171Z,88.13
2022-09-06T14:51:33.394Z,88.13
2022-09-06T14:52:33.153Z,87.93
2022-09-06T14:53:40.366Z,87.63
2022-09-06T14:54:33.128Z,88.03
2022-09-06T14:55:33.117Z,88.13
2022-09-06T14:56:36.229Z,88.03
2022-09-06T14:57:33.115Z,88.43
2022-09-06T14:58:33.130Z,88.93
2022-09-06T14:59:33.082Z,88.93
2022-09-06T15:00:33.069Z,89.33
2022-09-06T15:01:38.118Z,87.93
2022-09-06T15:02:33.331Z,88.53
2022-09-06T15:03:33.030Z,89.23
2022-09-06T15:04:33.028Z,89.43
2022-09-06T15:05:33.011Z,90.23
2022-09-06T15:06:32.991Z,89.64
2022-09-06T15:07:32.993Z,89.03
2022-09-06T15:08:32.983Z,88.43
2022-09-06T15:09:32.993Z,89.33
2022-09-06T15:10:32.963Z,90.94
2022-09-06T15:11:35.942Z,91.44
2022-09-06T15:12:32.951Z,91.19
2022-09-06T15:13:33.003Z,90.89
2022-09-06T15:14:32.922Z,90.49
2022-09-06T15:15:32.985Z,90.05
2022-09-06T15:16:32.918Z,89.75
2022-09-06T15:17:32.896Z,88.45
2022-09-06T15:18:32.899Z,86.85
2022-09-06T15:19:32.889Z,86.35
2022-09-06T15:20:32.870Z,86.35
2022-09-06T15:21:32.837Z,86.15
2022-09-06T15:22:32.858Z,85.81
2022-09-06T15:23:32.826Z,86.11
2022-09-06T15:24:32.816Z,85.61
2022-09-06T15:25:32.802Z,85.61
2022-09-06T15:26:35.790Z,85.61
2022-09-06T15:27:32.792Z,85.97
2022-09-06T15:28:32.770Z,85.67
2022-09-06T15:29:32.799Z,85.17
2022-09-06T15:30:32.752Z,85.27
2022-09-06T15:31:32.834Z,85.57
2022-09-06T15:32:32.720Z,85.27
2022-09-06T15:33:32.710Z,85.97
2022-09-06T15:34:32.702Z,86.17
2022-09-06T15:35:32.694Z,85.27
2022-09-06T15:36:32.685Z,84.73
2022-09-06T15:37:32.673Z,84.53
2022-09-06T15:38:32.662Z,84.23
2022-09-06T15:39:32.681Z,84.03
2022-09-06T15:40:32.643Z,83.83
2022-09-06T15:41:35.643Z,85.23
2022-09-06T15:42:32.634Z,85.33
2022-09-06T15:43:32.607Z,84.27
2022-09-06T15:44:32.607Z,84.73
2022-09-06T15:45:32.587Z,83.53
2022-09-06T15:46:32.613Z,84.13
2022-09-06T15:47:32.662Z,84.13
2022-09-06T15:48:32.559Z,84.33
2022-09-06T15:49:32.537Z,84.73
2022-09-06T15:50:50.193Z,84.33
2022-09-06T15:51:33.538Z,84.33
2022-09-06T15:52:32.510Z,84.03
2022-09-06T15:53:32.498Z,83.53
2022-09-06T15:54:32.492Z,83.33
2022-09-06T15:55:32.596Z,83.53
2022-09-06T15:56:35.472Z,84.03
2022-09-06T15:57:32.478Z,84.23
2022-09-06T15:58:32.451Z,82.64
2022-09-06T15:59:32.440Z,81.84
2022-09-06T16:00:32.431Z,83.23
2022-09-06T16:01:32.451Z,82.83
2022-09-06T16:02:32.440Z,83.73
2022-09-06T16:03:32.392Z,84.43
2022-09-06T16:04:32.384Z,84.83
2022-09-06T16:06:33.363Z,85.53
2022-09-06T16:07:32.356Z,85.67
2022-09-06T16:08:32.344Z,87.16
2022-09-06T16:09:32.326Z,87.16
2022-09-06T16:10:32.317Z,87.71
2022-09-06T16:11:35.306Z,88.31
2022-09-06T16:12:32.318Z,87.85
2022-09-06T16:13:32.286Z,88.15
2022-09-06T16:14:32.382Z,87.95
2022-09-06T16:15:32.271Z,87.95
2022-09-06T16:16:32.282Z,87.95
2022-09-06T16:17:32.240Z,88.35
2022-09-06T16:18:32.275Z,90.05
2022-09-06T16:19:32.230Z,92.25
2022-09-06T16:20:33.525Z,92.65
2022-09-06T16:21:32.291Z,92.55
2022-09-06T16:22:32.194Z,92.44
2022-09-06T16:23:32.240Z,93.24
2022-09-06T16:24:32.185Z,93.89
2022-09-06T16:25:32.151Z,94.09
2022-09-06T16:26:35.155Z,94.39
2022-09-06T16:27:32.155Z,94.39
2022-09-06T16:28:32.132Z,94.39
2022-09-06T16:29:32.154Z,94.69
2022-09-06T16:30:32.146Z,94.99
2022-09-06T16:31:35.270Z,95.59
2022-09-06T16:32:32.095Z,95.14
2022-09-06T16:33:32.207Z,95.73
2022-09-06T16:34:32.075Z,95.23
2022-09-06T16:35:32.064Z,95.43
2022-09-06T16:36:32.055Z,95.84
2022-09-06T16:37:32.030Z,95.84
2022-09-06T16:38:32.037Z,95.73
2022-09-06T16:39:32.091Z,95.94
2022-09-06T16:40:31.999Z,95.64
2022-09-06T16:41:34.991Z,95.54
2022-09-06T16:42:32.001Z,95.54
2022-09-06T16:43:31.989Z,95.54
2022-09-06T16:44:31.966Z,95.54
2022-09-06T16:45:31.953Z,95.34
2022-09-06T16:46:32.069Z,95.23
2022-09-06T16:47:31.936Z,94.93
2022-09-06T16:48:31.937Z,95.54
2022-09-06T16:49:31.959Z,95.54
2022-09-06T16:50:31.901Z,95.04
2022-09-06T16:51:31.890Z,95.14
2022-09-06T16:52:31.876Z,95.54
2022-09-06T16:53:31.864Z,95.54
2022-09-06T16:54:31.871Z,95.43
2022-09-06T16:55:31.855Z,95.04
2022-09-06T16:56:34.846Z,94.59
2022-09-06T16:57:31.830Z,94.13
2022-09-06T16:58:31.815Z,93.49
2022-09-06T16:59:31.804Z,93.39
2022-09-06T17:00:31.826Z,93.09
2022-09-06T17:01:31.895Z,92.89
2022-09-06T17:02:31.791Z,92.49
2022-09-06T17:03:31.770Z,91.69
2022-09-06T17:04:31.750Z,91.79
2022-09-06T17:05:31.756Z,91.79
2022-09-06T17:06:31.733Z,91.79
2022-09-06T17:07:31.708Z,91.69
2022-09-06T17:08:31.697Z,91.39
2022-09-06T17:09:31.692Z,91.59
2022-09-06T17:10:31.681Z,91.53
2022-09-06T17:11:34.777Z,91.53
2022-09-06T17:12:31.681Z,91.63
2022-09-06T17:13:31.641Z,91.74
2022-09-06T17:14:31.671Z,91.44
2022-09-06T17:15:31.638Z,90.94
2022-09-06T17:16:31.704Z,90.94
2022-09-06T17:17:31.611Z,91.13
2022-09-06T17:18:31.600Z,90.83
2022-09-06T17:19:31.594Z,90.98
2022-09-06T17:20:31.575Z,90.98
2022-09-06T17:21:31.565Z,91.48
2022-09-06T17:22:31.606Z,91.67
2022-09-06T17:23:31.552Z,91.88
2022-09-06T17:24:31.545Z,91.78
2022-09-06T17:25:31.526Z,91.88
2022-09-06T17:26:34.533Z,91.67
2022-09-06T17:27:31.611Z,91.88
2022-09-06T17:28:31.496Z,92.32
2022-09-06T17:29:31.491Z,92.62
2022-09-06T17:30:31.528Z,93.12
2022-09-06T17:31:31.581Z,93.52
2022-09-06T17:32:31.461Z,93.62
2022-09-06T17:33:31.550Z,93.77
2022-09-06T17:34:31.431Z,93.97
2022-09-06T17:35:31.410Z,94.17
2022-09-06T17:36:31.412Z,94.27
2022-09-06T17:37:31.388Z,94.27
2022-09-06T17:38:31.377Z,93.97
2022-09-06T17:39:31.432Z,93.87
2022-09-06T17:40:31.348Z,94.07
2022-09-06T17:41:34.356Z,94.17
2022-09-06T17:42:31.353Z,94.31
2022-09-06T17:43:31.343Z,94.42
2022-09-06T17:44:31.432Z,94.62
2022-09-06T17:45:31.356Z,94.82
2022-09-06T17:46:31.476Z,95.12
2022-09-06T17:47:31.331Z,95.47
2022-09-06T17:48:31.277Z,95.56
2022-09-06T17:49:31.300Z,95.66
2022-09-06T17:50:31.327Z,95.66
2022-09-06T17:51:31.289Z,95.66
2022-09-06T17:52:31.243Z,95.81
2022-09-06T17:53:31.234Z,96.01
2022-09-06T17:54:31.236Z,96.31
2022-09-06T17:55:31.250Z,96.51
2022-09-06T17:56:34.206Z,96.96
2022-09-06T17:57:31.205Z,96.86
2022-09-06T17:58:31.168Z,96.86
2022-09-06T17:59:35.069Z,97.16
2022-09-06T18:00:31.151Z,97.46
2022-09-06T18:01:31.215Z,97.56
2022-09-06T18:02:31.131Z,97.46
2022-09-06T18:03:31.109Z,97.41
2022-09-06T18:04:31.243Z,97.61
2022-09-06T18:05:31.114Z,97.71
2022-09-06T18:06:31.091Z,97.61
2022-09-06T18:07:31.084Z,97.91
2022-09-06T18:08:31.076Z,98.36
2022-09-06T18:09:31.184Z,98.56
2022-09-06T18:10:31.057Z,98.56
2022-09-06T18:11:34.033Z,98.36
2022-09-06T18:12:31.034Z,98.36
2022-09-06T18:13:31.006Z,98.25
2022-09-06T18:14:31.002Z,97.85
2022-09-06T18:15:30.988Z,98.00
2022-09-06T18:16:31.066Z,98.10
2022-09-06T18:17:30.975Z,98.20
2022-09-06T18:18:30.988Z,98.30
2022-09-06T18:19:30.954Z,98.20
2022-09-06T18:20:30.976Z,98.00
2022-09-06T18:21:30.949Z,98.00
2022-09-06T18:22:30.916Z,98.00
2022-09-06T18:23:30.917Z,98.00
2022-09-06T18:24:30.925Z,97.90
2022-09-06T18:25:30.950Z,98.05
2022-09-06T18:26:33.888Z,98.05
2022-09-06T18:27:30.981Z,97.85
2022-09-06T18:28:30.858Z,98.45
2022-09-06T18:29:30.937Z,98.55
2022-09-06T18:30:30.881Z,98.95
2022-09-06T18:31:30.968Z,99.00
2022-09-06T18:32:30.867Z,99.10
2022-09-06T18:33:30.890Z,98.90
2022-09-06T18:34:30.851Z,98.90
2022-09-06T18:35:30.832Z,98.90
2022-09-06T18:36:32.361Z,99.00
2022-09-06T18:37:30.822Z,99.00
2022-09-06T18:38:30.863Z,99.00
2022-09-06T18:39:30.840Z,99.25
2022-09-06T18:40:30.784Z,99.65
2022-09-06T18:41:33.803Z,99.99
2022-09-06T18:42:30.777Z,99.99
2022-09-06T18:43:30.938Z,99.85
2022-09-06T18:44:32.244Z,99.55
2022-09-06T18:45:30.774Z,99.45
2022-09-06T18:46:30.732Z,99.45
2022-09-06T18:47:30.710Z,99.85
2022-09-06T18:48:30.800Z,99.99
2022-09-06T18:49:30.688Z,99.99
2022-09-06T18:50:30.670Z,99.99
2022-09-06T18:51:30.672Z,99.99
2022-09-06T18:52:30.649Z,99.99
2022-09-06T18:53:30.814Z,99.99
2022-09-06T18:54:30.673Z,99.99
2022-09-06T18:55:30.628Z,99.99
2022-09-06T18:56:33.607Z,99.99
2022-09-06T18:57:30.619Z,99.99
2022-09-06T18:58:30.794Z,99.99
2022-09-06T18:59:30.580Z,99.99
2022-09-06T19:00:30.577Z,99.99
2022-09-06T19:01:30.760Z,99.99
2022-09-06T19:02:30.582Z,99.99
2022-09-06T19:03:30.542Z,99.99
2022-09-06T19:04:30.635Z,99.99
2022-09-06T19:05:30.516Z,99.99
2022-09-06T19:06:30.503Z,99.99
2022-09-06T19:07:30.499Z,99.99
2022-09-06T19:08:30.551Z,99.99
2022-09-06T19:09:30.518Z,99.99
2022-09-06T19:10:30.474Z,99.99
2022-09-06T19:11:33.455Z,99.99
2022-09-06T19:12:30.461Z,99.99
2022-09-06T19:13:30.442Z,99.99
2022-09-06T19:14:30.458Z,99.99
2022-09-06T19:15:30.415Z,99.99
2022-09-06T19:16:30.431Z,99.99
2022-09-06T19:17:30.389Z,99.99
2022-09-06T19:18:30.379Z,99.99
2022-09-06T19:19:30.400Z,99.99
2022-09-06T19:20:30.358Z,99.99
2022-09-06T19:21:30.357Z,99.99
2022-09-06T19:22:31.339Z,99.99
2022-09-06T19:23:30.324Z,99.99
2022-09-06T19:24:30.350Z,99.99
2022-09-06T19:25:30.302Z,99.99
2022-09-06T19:26:33.296Z,99.99
2022-09-06T19:27:30.303Z,99.99
2022-09-06T19:28:30.430Z,99.99
2022-09-06T19:29:30.320Z,99.99
2022-09-06T19:30:30.259Z,99.99
2022-09-06T19:31:30.316Z,99.99
2022-09-06T19:32:30.241Z,99.99
2022-09-06T19:33:34.234Z,99.99
2022-09-06T19:34:30.257Z,99.99
2022-09-06T19:35:30.205Z,99.99
2022-09-06T19:36:30.200Z,99.99
2022-09-06T19:37:30.179Z,99.99
2022-09-06T19:38:47.228Z,99.99
2022-09-06T19:39:36.253Z,99.99
2022-09-06T19:40:30.145Z,99.99
2022-09-06T19:41:33.153Z,99.99
2022-09-06T19:42:30.156Z,99.99
2022-09-06T19:43:30.125Z,99.99
2022-09-06T19:44:30.107Z,99.99
2022-09-06T19:45:30.097Z,99.99
2022-09-06T19:46:30.132Z,99.99
2022-09-06T19:47:30.067Z,99.99
2022-09-06T19:48:30.161Z,99.99
2022-09-06T19:49:30.058Z,99.99
2022-09-06T19:50:30.102Z,99.99
2022-09-06T19:51:30.031Z,99.99
2022-09-06T19:52:30.022Z,99.99
2022-09-06T19:53:30.013Z,99.99
2022-09-06T19:54:30.006Z,99.99
2022-09-06T19:55:29.992Z,99.99
2022-09-06T19:56:32.978Z,99.99
2022-09-06T19:57:29.981Z,99.99
2022-09-06T19:58:29.971Z,99.99
2022-09-06T19:59:30.008Z,99.99
2022-09-06T20:00:34.739Z,99.99
2022-09-06T20:01:29.955Z,99.99
2022-09-06T20:02:30.079Z,99.99
2022-09-06T20:03:29.903Z,99.99
2022-09-06T20:04:29.893Z,99.99